Strona główna
METAR-TAF:

METAR-TAF

Lotnisko :

Meiringen, Szwajcaria

Szerokość geograficzna: 46-44-25N, Długość geograficzna: 8-06-36E, wysokość: 577 m

Aktualna obserwacja pogody

Raport powstał 30 minut temu, godzina 02:50 UTC
Wiatr 8 kt z kierunków zmiennych
Temperatura 2°C
Wilgotność 80%
Ciśnienie 1018 hPa
Widzialność 10 km lub więcej
Zachmurzenie całkowite na wysokości 4100 ft
słaby deszcz

METAR: LSMM 300250Z AUTO VRB08KT 9999NDV -RA OVC041 02/M01 Q1018 RMK

czas: 05:20 (03:20 UTC)


TAF: brakujący

Obserwacja i prognoza pogody dla ponad 4000 lotnisk (raport METAR i TAF).

Dostępne stacje oznaczono żółtymi i czerwonymi punktami na mapie.

Najedź kursorem aby zobaczyć nazwę stacji.

Kliknij aby zobaczyć obserwacje i prognozy pogody.

Aby zmienić mapę: kliknij na zielony przycisk z czarnym krzyżykiem, aby powiększyć; na zielony przycisk z myślnikiem, aby pomniejszyć; na zielone strzałki, aby przejść do map sąsiednich.


METAR-TAF: